Lost City, West Virginia
Current Conditions -  °F | °C
As of 2:15 PM on Tuesday 21 Oct 2014 (Local Time) from K8W2 Reporting Station
Overcast Overcast  
Wind Chill: 62°   Ceiling: 9000
Heat Index: 62°   Visibility: 10mi
Dew Point: 45°   Wind: 0mph
Humidity: 53%   Direction: NA
Pressure: 29.83"   Gusts: NA
Location:  38.93°N, 78.83°W
Report Text: K8W2 211815Z AUTO 00000KT 10SM SCT070 BKN090 OVC120 17/07 A2983 RMK AO1 T01670071
Loading
Personal Weather Stations






























Interactive Weather Map
Tropical Storm Tracking
New forecast layout! Learn more

10-Day Weather Forecast

Advertisements
Track Severe Weather on mobile